ADDS METAR Data INFO
IDs: Format: Raw Decoded Include TAF

Data at: 0439 UTC 24 Apr 2018

KFWS 240435Z AUTO 00000KT 10SM CLR 13/11 A3007 RMK AO2 T01300105
KFWS 240415Z AUTO 00000KT 10SM CLR 13/11 A3007 RMK AO2 T01340108
KFWS 240355Z AUTO 00000KT 10SM CLR 14/10 A3007 RMK AO2 T01360101
KFWS 240335Z AUTO 00000KT 10SM CLR 15/11 A3006 RMK AO2 T01450113
KFWS 240315Z AUTO 00000KT 10SM CLR 15/11 A3005 RMK AO2 T01450106
KFWS 240255Z AUTO 00000KT 10SM CLR 15/11 A3004 RMK AO2 T01510106
KFWS 240235Z AUTO 32003KT 10SM CLR 19/10 A3004 RMK AO2 T01870101
KFWS 240215Z AUTO 33003KT 10SM CLR 19/10 A3003 RMK AO2 T01930100
KFWS 240155Z AUTO 34003KT 10SM CLR 20/10 A3003 RMK AO2 T01970100
KFWS 240135Z AUTO 36004KT 10SM CLR 20/10 A3002 RMK AO2 T02000100
KFWS 240115Z AUTO 34003KT 10SM CLR 20/10 A3002 RMK AO2 T01970102
KFWS 240055Z AUTO 34004KT 10SM CLR 20/11 A3002 RMK AO2 T01980110
KFWS 240035Z AUTO 34005KT 10SM CLR 21/11 A3001 RMK AO2 T02090112
KFWS 240015Z AUTO 32008KT 10SM CLR 22/10 A3001 RMK AO2 T02200104
KFWS 232350Z 31008KT 10SM FEW050 23/11 A3000
KFWS 232247Z 35010KT 10SM SCT055 24/10 A3002
KFWS 232145Z 32010KT 10SM SCT055 24/10 A3003
KFWS 232046Z 32010G16KT 10SM BKN050 24/11 A3005
KFWS 231951Z 32007G16KT 10SM SCT045 23/11 A3007
KFWS 231846Z 31009KT 10SM SCT042 22/11 A3010
KFWS 231752Z 33009KT 10SM SCT036 21/12 A3011
KFWS 231646Z 31008G15KT 10SM SCT031 19/11 A3013
KFWS 231547Z 29008KT 10SM BKN025 17/11 A3014
KFWS 231446Z 31008KT 10SM BKN019 14/11 A3013
KFWS 231346Z 31006KT 7SM FEW012 12/09 A3013
KFWS 231247Z 34010G17KT 7SM OVC012 11/09 A3012
KFWS 231151Z 32005KT 7SM SKC 10/08 A3010
KFWS 231115Z AUTO 33004KT 10SM CLR 10/07 A3008 RMK AO2 T00950071
KFWS 231055Z AUTO 32007KT 10SM CLR 10/08 A3007 RMK AO2 T01010075
KFWS 231035Z AUTO 30006KT 10SM CLR 10/08 A3007 RMK AO2 T01000076
KFWS 231015Z AUTO 28005KT 10SM CLR 10/07 A3007 RMK AO2 T00960072
KFWS 230955Z AUTO 30004KT 10SM CLR 09/07 A3007 RMK AO2 T00940070
KFWS 230935Z AUTO 00000KT 10SM CLR 10/07 A3006 RMK AO2 T00960074
KFWS 230915Z AUTO 00000KT 10SM CLR 10/07 A3005 RMK AO2 T00960070
KFWS 230855Z AUTO 28004KT 10SM CLR 10/08 A3005 RMK AO2 T01010075
KFWS 230835Z AUTO 26003KT 10SM CLR 09/07 A3005 RMK AO2 T00910071
KFWS 230815Z AUTO 00000KT 10SM CLR 09/07 A3005 RMK AO2 T00890065
KFWS 230755Z AUTO 00000KT 10SM CLR 12/08 A3004 RMK AO2 T01170075
KFWS 230735Z AUTO 00000KT 10SM CLR 12/08 A3005 RMK AO2 T01180075
KFWS 230715Z AUTO 29005KT 10SM CLR 12/08 A3006 RMK AO2 T01150075
KFWS 230655Z AUTO 28006KT 10SM CLR 12/08 A3006 RMK AO2 T01150077
KFWS 230635Z AUTO 27006KT 10SM CLR 11/08 A3007 RMK AO2 T01110076
KFWS 230615Z AUTO 28005KT 10SM CLR 12/08 A3007 RMK AO2 T01150078
KFWS 230555Z AUTO 28005KT 10SM CLR 12/08 A3007 RMK AO2 T01200079 10186 20120 401980106
KFWS 230535Z AUTO 28004KT 10SM CLR 13/08 A3006 RMK AO2 T01280077
KFWS 230515Z AUTO 30006KT 10SM CLR 12/08 A3006 RMK AO2 T01230076
KFWS 230455Z AUTO 29004KT 10SM CLR 13/08 A3007 RMK AO2 T01300077
KFWS 230435Z AUTO 29005KT 10SM CLR 13/08 A3007 RMK AO2 T01260080
KFWS 230415Z AUTO 28005KT 10SM CLR 13/08 A3007 RMK AO2 T01300081
KFWS 230355Z AUTO 28005KT 10SM CLR 13/08 A3007 RMK AO2 T01340077
KFWS 230335Z AUTO 27003KT 10SM CLR 13/07 A3007 RMK AO2 T01280074
KFWS 230315Z AUTO 30003KT 10SM CLR 14/08 A3007 RMK AO2 T01410075
KFWS 230255Z AUTO 31004KT 10SM CLR 15/07 A3007 RMK AO2 T01460074
KFWS 230235Z AUTO 29004KT 10SM CLR 15/08 A3007 RMK AO2 T01460075
KFWS 230215Z AUTO 33006KT 10SM CLR 14/08 A3007 RMK AO2 T01410075
KFWS 230155Z AUTO 33005KT 10SM CLR 15/08 A3006 RMK AO2 T01450075
KFWS 230135Z AUTO 34006KT 10SM CLR 15/08 A3006 RMK AO2 T01490075
KFWS 230115Z AUTO 34007KT 10SM CLR 15/08 A3005 RMK AO2 T01500075
KFWS 230055Z AUTO 33007KT 10SM CLR 17/07 A3005 RMK AO2 T01690072
KFWS 230035Z AUTO 33006KT 10SM CLR 18/07 A3005 RMK AO2 T01780068
KFWS 230015Z AUTO 32009G15KT 10SM SCT055 18/07 A3004 RMK AO2 T01810065
KFWS 222348Z 31012G18KT 10SM SCT055 19/05 A3005
KFWS 222247Z 30011G17KT 10SM BKN055 19/07 A3005
KFWS 222146Z 30016G22KT 10SM BKN049 19/07 A3006
KFWS 222055Z 31012G17KT 10SM SCT047 19/08 A3006
KFWS 221952Z 32014G23KT 10SM SCT042 19/07 A3008
KFWS 221855Z 29015G22KT 10SM BKN042 18/08 A3010
KFWS 221759Z 32014G21KT 10SM BKN040 16/07 A3012
KFWS 221646Z 32010G18KT 10SM SCT036 16/08 A3014